sensor_id;sensor_type;location;lat;lon;timestamp;P1;durP1;ratioP1;P2;durP2;ratioP2
25123;SDS011;13104;51.030;4.686;2024-02-26T00:02:05;0.40;;;0.40;;
25123;SDS011;13104;51.030;4.686;2024-02-26T00:04:31;0.95;;;0.70;;
25123;SDS011;13104;51.030;4.686;2024-02-26T00:06:58;0.82;;;0.80;;
25123;SDS011;13104;51.030;4.686;2024-02-26T00:09:24;1.40;;;0.73;;
25123;SDS011;13104;51.030;4.686;2024-02-26T00:11:50;0.70;;;0.65;;
25123;SDS011;13104;51.030;4.686;2024-02-26T00:14:16;1.17;;;0.70;;
25123;SDS011;13104;51.030;4.686;2024-02-26T00:16:42;2.30;;;0.60;;
25123;SDS011;13104;51.030;4.686;2024-02-26T00:19:10;0.40;;;0.40;;
25123;SDS011;13104;51.030;4.686;2024-02-26T00:21:39;0.90;;;0.60;;
25123;SDS011;13104;51.030;4.686;2024-02-26T00:24:06;3.58;;;0.63;;
25123;SDS011;13104;51.030;4.686;2024-02-26T00:26:32;0.80;;;0.60;;
25123;SDS011;13104;51.030;4.686;2024-02-26T00:28:58;0.30;;;0.30;;
25123;SDS011;13104;51.030;4.686;2024-02-26T00:31:24;0.40;;;0.40;;
25123;SDS011;13104;51.030;4.686;2024-02-26T00:33:50;0.47;;;0.30;;
25123;SDS011;13104;51.030;4.686;2024-02-26T00:36:16;0.38;;;0.38;;
25123;SDS011;13104;51.030;4.686;2024-02-26T00:38:43;1.45;;;0.65;;
25123;SDS011;13104;51.030;4.686;2024-02-26T00:41:15;0.77;;;0.63;;
25123;SDS011;13104;51.030;4.686;2024-02-26T00:43:41;0.40;;;0.40;;
25123;SDS011;13104;51.030;4.686;2024-02-26T00:46:07;0.47;;;0.40;;
25123;SDS011;13104;51.030;4.686;2024-02-26T00:48:34;0.38;;;0.38;;
25123;SDS011;13104;51.030;4.686;2024-02-26T00:51:00;0.77;;;0.55;;
25123;SDS011;13104;51.030;4.686;2024-02-26T00:53:26;0.28;;;0.28;;
25123;SDS011;13104;51.030;4.686;2024-02-26T00:55:53;0.50;;;0.47;;
25123;SDS011;13104;51.030;4.686;2024-02-26T00:58:19;0.40;;;0.40;;
25123;SDS011;13104;51.030;4.686;2024-02-26T01:00:45;0.50;;;0.50;;
25123;SDS011;13104;51.030;4.686;2024-02-26T01:03:12;0.60;;;0.52;;
25123;SDS011;13104;51.030;4.686;2024-02-26T01:05:38;3.47;;;0.50;;
25123;SDS011;13104;51.030;4.686;2024-02-26T01:08:04;0.63;;;0.43;;
25123;SDS011;13104;51.030;4.686;2024-02-26T01:10:30;0.45;;;0.35;;
25123;SDS011;13104;51.030;4.686;2024-02-26T01:12:56;0.52;;;0.50;;
25123;SDS011;13104;51.030;4.686;2024-02-26T01:15:22;0.52;;;0.43;;
25123;SDS011;13104;51.030;4.686;2024-02-26T01:17:49;0.52;;;0.50;;
25123;SDS011;13104;51.030;4.686;2024-02-26T01:20:16;1.08;;;0.75;;
25123;SDS011;13104;51.030;4.686;2024-02-26T01:22:43;0.40;;;0.40;;
25123;SDS011;13104;51.030;4.686;2024-02-26T01:25:09;0.52;;;0.50;;
25123;SDS011;13104;51.030;4.686;2024-02-26T01:27:36;0.50;;;0.50;;
25123;SDS011;13104;51.030;4.686;2024-02-26T01:30:03;0.40;;;0.40;;
25123;SDS011;13104;51.030;4.686;2024-02-26T01:32:29;0.47;;;0.43;;
25123;SDS011;13104;51.030;4.686;2024-02-26T01:34:55;0.40;;;0.40;;
25123;SDS011;13104;51.030;4.686;2024-02-26T01:37:21;0.50;;;0.50;;
25123;SDS011;13104;51.030;4.686;2024-02-26T01:39:47;0.85;;;0.38;;
25123;SDS011;13104;51.030;4.686;2024-02-26T01:42:14;1.13;;;0.80;;
25123;SDS011;13104;51.030;4.686;2024-02-26T01:44:40;0.80;;;0.70;;
25123;SDS011;13104;51.030;4.686;2024-02-26T01:47:07;1.75;;;0.70;;
25123;SDS011;13104;51.030;4.686;2024-02-26T01:49:35;1.48;;;0.73;;
25123;SDS011;13104;51.030;4.686;2024-02-26T01:52:01;0.90;;;0.68;;
25123;SDS011;13104;51.030;4.686;2024-02-26T01:54:29;0.47;;;0.47;;
25123;SDS011;13104;51.030;4.686;2024-02-26T01:56:55;0.65;;;0.60;;
25123;SDS011;13104;51.030;4.686;2024-02-26T01:59:22;0.50;;;0.47;;
25123;SDS011;13104;51.030;4.686;2024-02-26T02:01:51;2.22;;;0.88;;
25123;SDS011;13104;51.030;4.686;2024-02-26T02:04:19;0.85;;;0.85;;
25123;SDS011;13104;51.030;4.686;2024-02-26T02:06:45;1.13;;;0.60;;
25123;SDS011;13104;51.030;4.686;2024-02-26T02:09:11;3.55;;;0.93;;
25123;SDS011;13104;51.030;4.686;2024-02-26T02:11:38;1.30;;;0.73;;
25123;SDS011;13104;51.030;4.686;2024-02-26T02:14:04;0.82;;;0.60;;
25123;SDS011;13104;51.030;4.686;2024-02-26T02:16:30;0.50;;;0.50;;
25123;SDS011;13104;51.030;4.686;2024-02-26T02:18:57;0.85;;;0.75;;
25123;SDS011;13104;51.030;4.686;2024-02-26T02:21:23;0.93;;;0.50;;
25123;SDS011;13104;51.030;4.686;2024-02-26T02:23:51;0.93;;;0.60;;
25123;SDS011;13104;51.030;4.686;2024-02-26T02:26:17;5.05;;;0.60;;
25123;SDS011;13104;51.030;4.686;2024-02-26T02:28:44;0.40;;;0.40;;
25123;SDS011;13104;51.030;4.686;2024-02-26T02:31:11;0.93;;;0.65;;
25123;SDS011;13104;51.030;4.686;2024-02-26T02:33:37;0.60;;;0.60;;
25123;SDS011;13104;51.030;4.686;2024-02-26T02:36:05;0.93;;;0.60;;
25123;SDS011;13104;51.030;4.686;2024-02-26T02:38:35;0.52;;;0.52;;
25123;SDS011;13104;51.030;4.686;2024-02-26T02:41:03;0.80;;;0.65;;
25123;SDS011;13104;51.030;4.686;2024-02-26T02:43:29;0.40;;;0.40;;
25123;SDS011;13104;51.030;4.686;2024-02-26T02:46:10;1.13;;;0.77;;
25123;SDS011;13104;51.030;4.686;2024-02-26T02:48:58;0.50;;;0.50;;
25123;SDS011;13104;51.030;4.686;2024-02-26T02:51:27;1.25;;;0.82;;
25123;SDS011;13104;51.030;4.686;2024-02-26T02:54:42;0.50;;;0.50;;
25123;SDS011;13104;51.030;4.686;2024-02-26T02:57:21;2.05;;;0.63;;
25123;SDS011;13104;51.030;4.686;2024-02-26T02:59:47;0.50;;;0.50;;
25123;SDS011;13104;51.030;4.686;2024-02-26T03:02:38;0.60;;;0.60;;
25123;SDS011;13104;51.030;4.686;2024-02-26T03:08:44;0.88;;;0.88;;
25123;SDS011;13104;51.030;4.686;2024-02-26T03:11:28;1.45;;;1.02;;
25123;SDS011;13104;51.030;4.686;2024-02-26T03:13:54;7.97;;;0.75;;
25123;SDS011;13104;51.030;4.686;2024-02-26T03:20:31;1.85;;;0.80;;
25123;SDS011;13104;51.030;4.686;2024-02-26T03:23:46;0.40;;;0.40;;
25123;SDS011;13104;51.030;4.686;2024-02-26T03:26:15;1.50;;;1.02;;
25123;SDS011;13104;51.030;4.686;2024-02-26T03:28:58;1.13;;;1.02;;
25123;SDS011;13104;51.030;4.686;2024-02-26T03:32:13;1.20;;;0.77;;
25123;SDS011;13104;51.030;4.686;2024-02-26T03:35:00;1.20;;;1.00;;
25123;SDS011;13104;51.030;4.686;2024-02-26T03:38:22;1.27;;;1.00;;
25123;SDS011;13104;51.030;4.686;2024-02-26T03:44:32;1.05;;;0.85;;
25123;SDS011;13104;51.030;4.686;2024-02-26T03:56:33;1.42;;;1.10;;
25123;SDS011;13104;51.030;4.686;2024-02-26T04:05:29;2.83;;;0.88;;
25123;SDS011;13104;51.030;4.686;2024-02-26T04:08:59;1.00;;;0.70;;
25123;SDS011;13104;51.030;4.686;2024-02-26T04:18:59;1.33;;;1.15;;
25123;SDS011;13104;51.030;4.686;2024-02-26T04:31:17;1.73;;;0.85;;
25123;SDS011;13104;51.030;4.686;2024-02-26T04:37:57;2.17;;;1.40;;
25123;SDS011;13104;51.030;4.686;2024-02-26T04:47:23;2.95;;;1.75;;
25123;SDS011;13104;51.030;4.686;2024-02-26T04:56:53;1.13;;;1.02;;
25123;SDS011;13104;51.030;4.686;2024-02-26T05:00:03;2.80;;;1.48;;
25123;SDS011;13104;51.030;4.686;2024-02-26T05:09:40;2.15;;;1.95;;
25123;SDS011;13104;51.030;4.686;2024-02-26T05:12:22;1.63;;;1.33;;
25123;SDS011;13104;51.030;4.686;2024-02-26T05:30:50;3.00;;;1.88;;
25123;SDS011;13104;51.030;4.686;2024-02-26T05:36:41;1.80;;;1.13;;
25123;SDS011;13104;51.030;4.686;2024-02-26T05:52:22;2.45;;;1.38;;
25123;SDS011;13104;51.030;4.686;2024-02-26T05:55:34;2.25;;;1.60;;
25123;SDS011;13104;51.030;4.686;2024-02-26T05:58:08;3.05;;;1.90;;
25123;SDS011;13104;51.030;4.686;2024-02-26T06:04:36;2.97;;;1.40;;
25123;SDS011;13104;51.030;4.686;2024-02-26T06:07:50;1.90;;;1.27;;
25123;SDS011;13104;51.030;4.686;2024-02-26T06:13:28;3.42;;;1.40;;
25123;SDS011;13104;51.030;4.686;2024-02-26T06:16:07;1.92;;;1.50;;
25123;SDS011;13104;51.030;4.686;2024-02-26T06:19:15;2.92;;;1.27;;
25123;SDS011;13104;51.030;4.686;2024-02-26T06:22:26;2.90;;;1.75;;
25123;SDS011;13104;51.030;4.686;2024-02-26T06:25:36;2.05;;;1.38;;
25123;SDS011;13104;51.030;4.686;2024-02-26T06:28:49;1.48;;;1.38;;
25123;SDS011;13104;51.030;4.686;2024-02-26T06:34:59;4.00;;;1.95;;
25123;SDS011;13104;51.030;4.686;2024-02-26T06:40:37;2.45;;;1.55;;
25123;SDS011;13104;51.030;4.686;2024-02-26T06:43:15;2.90;;;2.15;;
25123;SDS011;13104;51.030;4.686;2024-02-26T06:46:01;2.22;;;0.65;;
25123;SDS011;13104;51.030;4.686;2024-02-26T06:48:53;1.38;;;1.25;;
25123;SDS011;13104;51.030;4.686;2024-02-26T06:51:36;1.73;;;1.55;;
25123;SDS011;13104;51.030;4.686;2024-02-26T06:54:42;3.50;;;1.65;;
25123;SDS011;13104;51.030;4.686;2024-02-26T06:57:36;3.20;;;1.90;;
25123;SDS011;13104;51.030;4.686;2024-02-26T07:00:04;1.70;;;1.38;;
25123;SDS011;13104;51.030;4.686;2024-02-26T07:02:31;3.42;;;2.35;;
25123;SDS011;13104;51.030;4.686;2024-02-26T07:04:57;3.97;;;1.65;;
25123;SDS011;13104;51.030;4.686;2024-02-26T07:07:24;2.40;;;2.05;;
25123;SDS011;13104;51.030;4.686;2024-02-26T07:09:51;3.53;;;2.40;;
25123;SDS011;13104;51.030;4.686;2024-02-26T07:12:17;4.20;;;1.70;;
25123;SDS011;13104;51.030;4.686;2024-02-26T07:14:45;2.22;;;1.80;;
25123;SDS011;13104;51.030;4.686;2024-02-26T07:17:11;7.30;;;1.45;;
25123;SDS011;13104;51.030;4.686;2024-02-26T07:19:37;3.17;;;1.42;;
25123;SDS011;13104;51.030;4.686;2024-02-26T07:22:04;6.63;;;2.20;;
25123;SDS011;13104;51.030;4.686;2024-02-26T07:24:33;2.40;;;1.98;;
25123;SDS011;13104;51.030;4.686;2024-02-26T07:30:36;2.33;;;1.65;;
25123;SDS011;13104;51.030;4.686;2024-02-26T07:33:39;9.45;;;2.00;;
25123;SDS011;13104;51.030;4.686;2024-02-26T07:36:05;2.50;;;1.38;;
25123;SDS011;13104;51.030;4.686;2024-02-26T07:38:31;2.40;;;1.85;;
25123;SDS011;13104;51.030;4.686;2024-02-26T07:41:20;2.00;;;1.63;;
25123;SDS011;13104;51.030;4.686;2024-02-26T07:43:49;1.33;;;1.20;;
25123;SDS011;13104;51.030;4.686;2024-02-26T07:46:15;2.08;;;1.63;;
25123;SDS011;13104;51.030;4.686;2024-02-26T07:48:41;1.60;;;1.38;;
25123;SDS011;13104;51.030;4.686;2024-02-26T07:51:07;1.40;;;1.30;;
25123;SDS011;13104;51.030;4.686;2024-02-26T07:53:34;1.88;;;1.45;;
25123;SDS011;13104;51.030;4.686;2024-02-26T07:56:12;1.88;;;1.25;;
25123;SDS011;13104;51.030;4.686;2024-02-26T07:59:21;2.30;;;1.40;;
25123;SDS011;13104;51.030;4.686;2024-02-26T08:01:49;1.50;;;1.20;;
25123;SDS011;13104;51.030;4.686;2024-02-26T08:04:16;1.45;;;1.08;;
25123;SDS011;13104;51.030;4.686;2024-02-26T08:06:42;3.00;;;1.70;;
25123;SDS011;13104;51.030;4.686;2024-02-26T08:15:17;2.13;;;1.48;;
25123;SDS011;13104;51.030;4.686;2024-02-26T08:20:39;2.13;;;1.35;;
25123;SDS011;13104;51.030;4.686;2024-02-26T08:35:40;1.27;;;1.17;;
25123;SDS011;13104;51.030;4.686;2024-02-26T09:00:10;1.60;;;1.25;;
25123;SDS011;13104;51.030;4.686;2024-02-26T09:23:05;2.00;;;1.80;;
25123;SDS011;13104;51.030;4.686;2024-02-26T09:39:33;1.65;;;1.40;;
25123;SDS011;13104;51.030;4.686;2024-02-26T10:16:10;3.75;;;1.33;;
25123;SDS011;13104;51.030;4.686;2024-02-26T10:18:50;2.00;;;1.20;;
25123;SDS011;13104;51.030;4.686;2024-02-26T10:58:51;1.20;;;0.80;;
25123;SDS011;13104;51.030;4.686;2024-02-26T11:02:11;1.45;;;1.10;;
25123;SDS011;13104;51.030;4.686;2024-02-26T11:08:22;0.95;;;0.70;;
25123;SDS011;13104;51.030;4.686;2024-02-26T11:14:47;1.30;;;1.10;;
25123;SDS011;13104;51.030;4.686;2024-02-26T11:27:21;1.55;;;0.90;;
25123;SDS011;13104;51.030;4.686;2024-02-26T11:30:47;3.10;;;1.10;;
25123;SDS011;13104;51.030;4.686;2024-02-26T11:34:09;1.10;;;1.00;;
25123;SDS011;13104;51.030;4.686;2024-02-26T11:58:57;4.32;;;1.13;;
25123;SDS011;13104;51.030;4.686;2024-02-26T12:02:07;1.48;;;1.20;;
25123;SDS011;13104;51.030;4.686;2024-02-26T12:04:33;1.23;;;1.13;;
25123;SDS011;13104;51.030;4.686;2024-02-26T12:16:54;3.78;;;1.35;;
25123;SDS011;13104;51.030;4.686;2024-02-26T12:43:45;1.27;;;1.17;;
25123;SDS011;13104;51.030;4.686;2024-02-26T12:53:17;2.33;;;1.35;;
25123;SDS011;13104;51.030;4.686;2024-02-26T13:35:24;1.95;;;1.67;;
25123;SDS011;13104;51.030;4.686;2024-02-26T13:37:51;4.80;;;1.60;;
25123;SDS011;13104;51.030;4.686;2024-02-26T13:40:17;2.20;;;2.00;;
25123;SDS011;13104;51.030;4.686;2024-02-26T13:42:46;2.67;;;1.90;;
25123;SDS011;13104;51.030;4.686;2024-02-26T13:45:13;5.35;;;1.88;;
25123;SDS011;13104;51.030;4.686;2024-02-26T13:47:39;3.78;;;1.73;;
25123;SDS011;13104;51.030;4.686;2024-02-26T13:50:06;3.20;;;2.28;;
25123;SDS011;13104;51.030;4.686;2024-02-26T13:52:33;2.00;;;1.80;;
25123;SDS011;13104;51.030;4.686;2024-02-26T13:55:04;4.78;;;1.75;;
25123;SDS011;13104;51.030;4.686;2024-02-26T13:57:30;4.38;;;1.77;;
25123;SDS011;13104;51.030;4.686;2024-02-26T13:59:57;1.55;;;1.35;;
25123;SDS011;13104;51.030;4.686;2024-02-26T14:02:23;3.53;;;1.35;;
25123;SDS011;13104;51.030;4.686;2024-02-26T14:04:49;5.22;;;2.92;;
25123;SDS011;13104;51.030;4.686;2024-02-26T14:07:15;5.63;;;2.47;;
25123;SDS011;13104;51.030;4.686;2024-02-26T14:09:42;3.08;;;1.90;;
25123;SDS011;13104;51.030;4.686;2024-02-26T14:12:28;3.58;;;1.90;;
25123;SDS011;13104;51.030;4.686;2024-02-26T14:14:54;2.60;;;1.95;;
25123;SDS011;13104;51.030;4.686;2024-02-26T14:17:29;5.38;;;2.17;;
25123;SDS011;13104;51.030;4.686;2024-02-26T14:20:43;2.03;;;1.85;;
25123;SDS011;13104;51.030;4.686;2024-02-26T14:23:39;5.55;;;1.85;;
25123;SDS011;13104;51.030;4.686;2024-02-26T14:26:05;1.73;;;1.50;;
25123;SDS011;13104;51.030;4.686;2024-02-26T14:28:37;3.67;;;1.90;;
25123;SDS011;13104;51.030;4.686;2024-02-26T14:31:12;2.03;;;1.88;;
25123;SDS011;13104;51.030;4.686;2024-02-26T14:33:38;2.03;;;1.85;;
25123;SDS011;13104;51.030;4.686;2024-02-26T14:36:06;3.75;;;1.95;;
25123;SDS011;13104;51.030;4.686;2024-02-26T14:38:33;3.53;;;1.75;;
25123;SDS011;13104;51.030;4.686;2024-02-26T14:41:00;7.10;;;2.20;;
25123;SDS011;13104;51.030;4.686;2024-02-26T14:43:26;2.20;;;1.70;;
25123;SDS011;13104;51.030;4.686;2024-02-26T14:45:52;3.63;;;1.27;;
25123;SDS011;13104;51.030;4.686;2024-02-26T14:48:18;2.92;;;1.70;;
25123;SDS011;13104;51.030;4.686;2024-02-26T14:50:44;1.85;;;1.60;;
25123;SDS011;13104;51.030;4.686;2024-02-26T14:53:12;1.45;;;1.20;;
25123;SDS011;13104;51.030;4.686;2024-02-26T14:56:12;3.67;;;2.10;;
25123;SDS011;13104;51.030;4.686;2024-02-26T14:58:38;3.83;;;1.60;;
25123;SDS011;13104;51.030;4.686;2024-02-26T15:01:06;2.78;;;1.30;;
25123;SDS011;13104;51.030;4.686;2024-02-26T15:03:44;3.40;;;1.75;;
25123;SDS011;13104;51.030;4.686;2024-02-26T15:06:11;1.85;;;1.33;;
25123;SDS011;13104;51.030;4.686;2024-02-26T15:08:37;4.90;;;1.60;;
25123;SDS011;13104;51.030;4.686;2024-02-26T15:11:03;3.60;;;1.50;;
25123;SDS011;13104;51.030;4.686;2024-02-26T15:13:30;4.68;;;2.40;;
25123;SDS011;13104;51.030;4.686;2024-02-26T15:15:56;1.30;;;1.20;;
25123;SDS011;13104;51.030;4.686;2024-02-26T15:18:22;2.30;;;1.15;;
25123;SDS011;13104;51.030;4.686;2024-02-26T15:20:48;5.78;;;1.60;;
25123;SDS011;13104;51.030;4.686;2024-02-26T15:23:14;2.17;;;1.45;;
25123;SDS011;13104;51.030;4.686;2024-02-26T15:25:40;3.38;;;1.60;;
25123;SDS011;13104;51.030;4.686;2024-02-26T15:28:06;3.20;;;1.85;;
25123;SDS011;13104;51.030;4.686;2024-02-26T15:30:35;1.60;;;1.25;;
25123;SDS011;13104;51.030;4.686;2024-02-26T15:33:08;1.60;;;1.02;;
25123;SDS011;13104;51.030;4.686;2024-02-26T15:35:39;3.03;;;1.45;;
25123;SDS011;13104;51.030;4.686;2024-02-26T15:38:11;2.47;;;1.40;;
25123;SDS011;13104;51.030;4.686;2024-02-26T15:40:38;1.98;;;1.05;;
25123;SDS011;13104;51.030;4.686;2024-02-26T15:43:05;1.73;;;1.17;;
25123;SDS011;13104;51.030;4.686;2024-02-26T15:45:56;1.15;;;0.85;;
25123;SDS011;13104;51.030;4.686;2024-02-26T15:48:47;2.80;;;1.45;;
25123;SDS011;13104;51.030;4.686;2024-02-26T15:51:35;2.08;;;1.42;;
25123;SDS011;13104;51.030;4.686;2024-02-26T15:54:42;2.05;;;1.25;;
25123;SDS011;13104;51.030;4.686;2024-02-26T15:57:12;4.43;;;2.40;;
25123;SDS011;13104;51.030;4.686;2024-02-26T15:59:56;1.40;;;1.15;;
25123;SDS011;13104;51.030;4.686;2024-02-26T16:02:26;1.25;;;1.02;;
25123;SDS011;13104;51.030;4.686;2024-02-26T16:04:52;4.90;;;1.48;;
25123;SDS011;13104;51.030;4.686;2024-02-26T16:07:21;1.33;;;0.93;;
25123;SDS011;13104;51.030;4.686;2024-02-26T16:12:59;1.77;;;1.10;;
25123;SDS011;13104;51.030;4.686;2024-02-26T16:15:26;3.08;;;1.45;;
25123;SDS011;13104;51.030;4.686;2024-02-26T16:17:52;2.38;;;1.30;;
25123;SDS011;13104;51.030;4.686;2024-02-26T16:20:22;1.65;;;1.30;;
25123;SDS011;13104;51.030;4.686;2024-02-26T16:23:12;2.30;;;1.77;;
25123;SDS011;13104;51.030;4.686;2024-02-26T16:25:38;1.60;;;1.15;;
25123;SDS011;13104;51.030;4.686;2024-02-26T16:28:04;6.47;;;1.98;;
25123;SDS011;13104;51.030;4.686;2024-02-26T16:30:45;1.88;;;1.33;;
25123;SDS011;13104;51.030;4.686;2024-02-26T16:33:20;2.20;;;1.42;;
25123;SDS011;13104;51.030;4.686;2024-02-26T16:35:47;2.42;;;1.38;;
25123;SDS011;13104;51.030;4.686;2024-02-26T16:38:13;8.98;;;1.85;;
25123;SDS011;13104;51.030;4.686;2024-02-26T16:40:40;2.25;;;1.70;;
25123;SDS011;13104;51.030;4.686;2024-02-26T16:43:06;3.63;;;2.05;;
25123;SDS011;13104;51.030;4.686;2024-02-26T16:45:38;7.25;;;2.35;;
25123;SDS011;13104;51.030;4.686;2024-02-26T16:48:36;1.90;;;1.50;;
25123;SDS011;13104;51.030;4.686;2024-02-26T16:51:26;3.97;;;1.73;;
25123;SDS011;13104;51.030;4.686;2024-02-26T16:54:09;3.72;;;2.40;;
25123;SDS011;13104;51.030;4.686;2024-02-26T16:56:55;7.95;;;3.08;;
25123;SDS011;13104;51.030;4.686;2024-02-26T16:59:22;3.60;;;2.25;;
25123;SDS011;13104;51.030;4.686;2024-02-26T17:01:52;2.13;;;1.67;;
25123;SDS011;13104;51.030;4.686;2024-02-26T17:04:19;4.13;;;1.85;;
25123;SDS011;13104;51.030;4.686;2024-02-26T17:06:45;6.20;;;2.80;;
25123;SDS011;13104;51.030;4.686;2024-02-26T17:09:11;6.00;;;3.38;;
25123;SDS011;13104;51.030;4.686;2024-02-26T17:11:37;5.07;;;2.70;;
25123;SDS011;13104;51.030;4.686;2024-02-26T17:14:03;9.63;;;2.90;;
25123;SDS011;13104;51.030;4.686;2024-02-26T17:16:30;4.20;;;2.15;;
25123;SDS011;13104;51.030;4.686;2024-02-26T17:18:56;7.07;;;2.25;;
25123;SDS011;13104;51.030;4.686;2024-02-26T17:21:23;4.32;;;2.47;;
25123;SDS011;13104;51.030;4.686;2024-02-26T17:23:52;3.30;;;1.92;;
25123;SDS011;13104;51.030;4.686;2024-02-26T17:26:18;2.75;;;2.25;;
25123;SDS011;13104;51.030;4.686;2024-02-26T17:28:45;3.40;;;2.20;;
25123;SDS011;13104;51.030;4.686;2024-02-26T17:31:11;5.32;;;2.20;;
25123;SDS011;13104;51.030;4.686;2024-02-26T17:34:21;9.38;;;3.25;;
25123;SDS011;13104;51.030;4.686;2024-02-26T17:37:22;3.50;;;2.08;;
25123;SDS011;13104;51.030;4.686;2024-02-26T17:39:53;6.28;;;2.45;;
25123;SDS011;13104;51.030;4.686;2024-02-26T17:42:52;6.53;;;3.45;;
25123;SDS011;13104;51.030;4.686;2024-02-26T17:45:26;4.32;;;2.30;;
25123;SDS011;13104;51.030;4.686;2024-02-26T17:48:13;2.83;;;2.33;;
25123;SDS011;13104;51.030;4.686;2024-02-26T17:50:43;3.53;;;2.58;;
25123;SDS011;13104;51.030;4.686;2024-02-26T17:53:14;4.32;;;2.10;;
25123;SDS011;13104;51.030;4.686;2024-02-26T17:55:42;3.35;;;1.90;;
25123;SDS011;13104;51.030;4.686;2024-02-26T17:58:09;3.55;;;2.17;;
25123;SDS011;13104;51.030;4.686;2024-02-26T18:00:35;3.63;;;2.53;;
25123;SDS011;13104;51.030;4.686;2024-02-26T18:03:01;4.32;;;2.55;;
25123;SDS011;13104;51.030;4.686;2024-02-26T18:05:27;3.25;;;2.42;;
25123;SDS011;13104;51.030;4.686;2024-02-26T18:07:54;2.75;;;1.83;;
25123;SDS011;13104;51.030;4.686;2024-02-26T18:10:20;5.10;;;2.38;;
25123;SDS011;13104;51.030;4.686;2024-02-26T18:12:48;3.40;;;2.25;;
25123;SDS011;13104;51.030;4.686;2024-02-26T18:15:14;4.32;;;2.70;;
25123;SDS011;13104;51.030;4.686;2024-02-26T18:17:40;3.72;;;2.17;;
25123;SDS011;13104;51.030;4.686;2024-02-26T18:20:07;1.80;;;1.55;;
25123;SDS011;13104;51.030;4.686;2024-02-26T18:22:34;4.18;;;2.38;;
25123;SDS011;13104;51.030;4.686;2024-02-26T18:25:00;2.33;;;2.13;;
25123;SDS011;13104;51.030;4.686;2024-02-26T18:27:31;2.80;;;2.03;;
25123;SDS011;13104;51.030;4.686;2024-02-26T18:30:00;2.22;;;1.90;;
25123;SDS011;13104;51.030;4.686;2024-02-26T18:32:26;3.28;;;1.90;;
25123;SDS011;13104;51.030;4.686;2024-02-26T18:34:53;4.38;;;2.70;;
25123;SDS011;13104;51.030;4.686;2024-02-26T18:37:20;3.28;;;1.85;;
25123;SDS011;13104;51.030;4.686;2024-02-26T18:39:46;5.55;;;2.83;;
25123;SDS011;13104;51.030;4.686;2024-02-26T18:42:12;4.60;;;2.40;;
25123;SDS011;13104;51.030;4.686;2024-02-26T18:44:39;5.15;;;2.75;;
25123;SDS011;13104;51.030;4.686;2024-02-26T18:47:06;2.50;;;1.80;;
25123;SDS011;13104;51.030;4.686;2024-02-26T18:49:32;3.13;;;2.25;;
25123;SDS011;13104;51.030;4.686;2024-02-26T18:52:02;2.95;;;1.92;;
25123;SDS011;13104;51.030;4.686;2024-02-26T18:54:28;3.22;;;2.03;;
25123;SDS011;13104;51.030;4.686;2024-02-26T18:56:56;4.35;;;2.70;;
25123;SDS011;13104;51.030;4.686;2024-02-26T18:59:26;3.00;;;2.15;;
25123;SDS011;13104;51.030;4.686;2024-02-26T19:01:52;3.63;;;1.67;;
25123;SDS011;13104;51.030;4.686;2024-02-26T19:04:18;4.55;;;2.85;;
25123;SDS011;13104;51.030;4.686;2024-02-26T19:06:45;3.22;;;1.92;;
25123;SDS011;13104;51.030;4.686;2024-02-26T19:09:14;4.30;;;2.10;;
25123;SDS011;13104;51.030;4.686;2024-02-26T19:11:47;3.83;;;2.75;;
25123;SDS011;13104;51.030;4.686;2024-02-26T19:14:20;3.00;;;1.33;;
25123;SDS011;13104;51.030;4.686;2024-02-26T19:16:46;3.03;;;2.17;;
25123;SDS011;13104;51.030;4.686;2024-02-26T19:19:22;4.05;;;2.10;;
25123;SDS011;13104;51.030;4.686;2024-02-26T19:22:08;1.77;;;1.50;;
25123;SDS011;13104;51.030;4.686;2024-02-26T19:24:35;5.07;;;1.98;;
25123;SDS011;13104;51.030;4.686;2024-02-26T19:27:02;3.88;;;2.50;;
25123;SDS011;13104;51.030;4.686;2024-02-26T19:29:38;5.28;;;2.15;;
25123;SDS011;13104;51.030;4.686;2024-02-26T19:32:06;5.32;;;2.33;;
25123;SDS011;13104;51.030;4.686;2024-02-26T19:34:36;4.25;;;1.95;;
25123;SDS011;13104;51.030;4.686;2024-02-26T19:37:03;6.05;;;2.50;;
25123;SDS011;13104;51.030;4.686;2024-02-26T19:39:29;4.45;;;2.28;;
25123;SDS011;13104;51.030;4.686;2024-02-26T19:41:55;3.30;;;1.77;;
25123;SDS011;13104;51.030;4.686;2024-02-26T19:44:21;5.47;;;2.80;;
25123;SDS011;13104;51.030;4.686;2024-02-26T19:46:47;2.60;;;2.08;;
25123;SDS011;13104;51.030;4.686;2024-02-26T19:49:13;5.00;;;2.60;;
25123;SDS011;13104;51.030;4.686;2024-02-26T19:51:39;3.28;;;2.13;;
25123;SDS011;13104;51.030;4.686;2024-02-26T19:54:07;2.95;;;1.67;;
25123;SDS011;13104;51.030;4.686;2024-02-26T19:56:33;4.53;;;2.92;;
25123;SDS011;13104;51.030;4.686;2024-02-26T19:59:00;3.33;;;1.98;;
25123;SDS011;13104;51.030;4.686;2024-02-26T20:01:26;2.20;;;1.55;;
25123;SDS011;13104;51.030;4.686;2024-02-26T20:03:52;9.65;;;3.17;;
25123;SDS011;13104;51.030;4.686;2024-02-26T20:06:18;5.93;;;2.72;;
25123;SDS011;13104;51.030;4.686;2024-02-26T20:08:44;6.75;;;3.10;;
25123;SDS011;13104;51.030;4.686;2024-02-26T20:11:14;3.88;;;2.88;;
25123;SDS011;13104;51.030;4.686;2024-02-26T20:13:42;5.65;;;2.72;;
25123;SDS011;13104;51.030;4.686;2024-02-26T20:16:08;3.47;;;1.83;;
25123;SDS011;13104;51.030;4.686;2024-02-26T20:18:36;4.28;;;2.20;;
25123;SDS011;13104;51.030;4.686;2024-02-26T20:21:07;4.25;;;2.50;;
25123;SDS011;13104;51.030;4.686;2024-02-26T20:23:37;4.07;;;2.47;;
25123;SDS011;13104;51.030;4.686;2024-02-26T20:26:03;3.08;;;2.28;;
25123;SDS011;13104;51.030;4.686;2024-02-26T20:28:29;4.53;;;2.20;;
25123;SDS011;13104;51.030;4.686;2024-02-26T20:30:59;5.50;;;2.22;;
25123;SDS011;13104;51.030;4.686;2024-02-26T20:33:26;7.03;;;2.92;;
25123;SDS011;13104;51.030;4.686;2024-02-26T20:35:53;6.30;;;3.08;;
25123;SDS011;13104;51.030;4.686;2024-02-26T20:38:19;3.92;;;2.30;;
25123;SDS011;13104;51.030;4.686;2024-02-26T20:40:45;5.10;;;3.08;;
25123;SDS011;13104;51.030;4.686;2024-02-26T20:43:12;11.48;;;3.30;;
25123;SDS011;13104;51.030;4.686;2024-02-26T20:45:42;3.15;;;2.38;;
25123;SDS011;13104;51.030;4.686;2024-02-26T20:48:14;4.38;;;1.98;;
25123;SDS011;13104;51.030;4.686;2024-02-26T20:50:41;4.15;;;2.45;;
25123;SDS011;13104;51.030;4.686;2024-02-26T20:53:07;6.78;;;3.30;;
25123;SDS011;13104;51.030;4.686;2024-02-26T20:55:36;5.88;;;2.33;;
25123;SDS011;13104;51.030;4.686;2024-02-26T20:58:04;9.05;;;3.10;;
25123;SDS011;13104;51.030;4.686;2024-02-26T21:00:30;6.25;;;2.38;;
25123;SDS011;13104;51.030;4.686;2024-02-26T21:02:56;6.03;;;3.00;;
25123;SDS011;13104;51.030;4.686;2024-02-26T21:05:22;6.70;;;2.05;;
25123;SDS011;13104;51.030;4.686;2024-02-26T21:07:49;6.05;;;2.67;;
25123;SDS011;13104;51.030;4.686;2024-02-26T21:10:15;3.72;;;2.28;;
25123;SDS011;13104;51.030;4.686;2024-02-26T21:12:41;5.32;;;2.65;;
25123;SDS011;13104;51.030;4.686;2024-02-26T21:15:07;7.40;;;3.13;;
25123;SDS011;13104;51.030;4.686;2024-02-26T21:17:33;4.03;;;2.08;;
25123;SDS011;13104;51.030;4.686;2024-02-26T21:19:59;4.53;;;1.90;;
25123;SDS011;13104;51.030;4.686;2024-02-26T21:22:25;4.43;;;2.75;;
25123;SDS011;13104;51.030;4.686;2024-02-26T21:24:51;10.10;;;3.63;;
25123;SDS011;13104;51.030;4.686;2024-02-26T21:27:18;4.47;;;3.20;;
25123;SDS011;13104;51.030;4.686;2024-02-26T21:29:44;2.00;;;1.83;;
25123;SDS011;13104;51.030;4.686;2024-02-26T21:32:10;4.93;;;2.67;;
25123;SDS011;13104;51.030;4.686;2024-02-26T21:34:36;5.70;;;3.35;;
25123;SDS011;13104;51.030;4.686;2024-02-26T21:37:02;5.18;;;2.50;;
25123;SDS011;13104;51.030;4.686;2024-02-26T21:39:28;3.80;;;2.58;;
25123;SDS011;13104;51.030;4.686;2024-02-26T21:41:54;6.22;;;3.38;;
25123;SDS011;13104;51.030;4.686;2024-02-26T21:44:21;4.78;;;3.03;;
25123;SDS011;13104;51.030;4.686;2024-02-26T21:46:47;4.97;;;2.90;;
25123;SDS011;13104;51.030;4.686;2024-02-26T21:49:14;4.13;;;1.90;;
25123;SDS011;13104;51.030;4.686;2024-02-26T21:51:43;2.63;;;2.13;;